sensor_id;sensor_type;location;lat;lon;timestamp;pressure;altitude;pressure_sealevel;temperature;humidity
76132;BME280;64877;50.994;13.650;2023-07-02T00:01:03;98558.03;;;20.06;92.98
76132;BME280;64877;50.994;13.650;2023-07-02T00:03:29;98561.59;;;20.00;93.50
76132;BME280;64877;50.994;13.650;2023-07-02T00:05:54;98560.94;;;19.98;93.92
76132;BME280;64877;50.994;13.650;2023-07-02T00:08:22;98555.47;;;19.98;93.94
76132;BME280;64877;50.994;13.650;2023-07-02T00:10:47;98562.84;;;19.97;93.66
76132;BME280;64877;50.994;13.650;2023-07-02T00:13:14;98556.31;;;19.98;93.67
76132;BME280;64877;50.994;13.650;2023-07-02T00:15:39;98552.09;;;19.89;94.16
76132;BME280;64877;50.994;13.650;2023-07-02T00:18:05;98554.56;;;19.84;94.22
76132;BME280;64877;50.994;13.650;2023-07-02T00:20:30;98558.81;;;19.86;93.96
76132;BME280;64877;50.994;13.650;2023-07-02T00:23:00;98569.78;;;19.93;94.47
76132;BME280;64877;50.994;13.650;2023-07-02T00:25:25;98562.00;;;19.90;94.03
76132;BME280;64877;50.994;13.650;2023-07-02T00:27:51;98554.19;;;19.94;94.13
76132;BME280;64877;50.994;13.650;2023-07-02T00:30:16;98550.41;;;19.95;93.86
76132;BME280;64877;50.994;13.650;2023-07-02T00:32:42;98558.44;;;20.03;93.55
76132;BME280;64877;50.994;13.650;2023-07-02T00:35:07;98558.88;;;20.00;93.31
76132;BME280;64877;50.994;13.650;2023-07-02T00:37:33;98553.22;;;20.21;92.13
76132;BME280;64877;50.994;13.650;2023-07-02T00:39:58;98559.03;;;19.92;93.68
76132;BME280;64877;50.994;13.650;2023-07-02T00:42:23;98554.63;;;19.91;93.83
76132;BME280;64877;50.994;13.650;2023-07-02T00:44:49;98553.56;;;19.98;93.36
76132;BME280;64877;50.994;13.650;2023-07-02T00:47:17;98552.06;;;19.82;93.78
76132;BME280;64877;50.994;13.650;2023-07-02T00:49:43;98563.06;;;19.96;93.29
76132;BME280;64877;50.994;13.650;2023-07-02T00:52:08;98564.75;;;19.97;93.59
76132;BME280;64877;50.994;13.650;2023-07-02T00:54:36;98561.78;;;19.98;93.10
76132;BME280;64877;50.994;13.650;2023-07-02T00:57:01;98556.31;;;19.92;93.64
76132;BME280;64877;50.994;13.650;2023-07-02T00:59:28;98558.81;;;19.86;93.42
76132;BME280;64877;50.994;13.650;2023-07-02T01:01:55;98564.75;;;19.97;93.11
76132;BME280;64877;50.994;13.650;2023-07-02T01:04:21;98550.22;;;20.03;92.17
76132;BME280;64877;50.994;13.650;2023-07-02T01:06:53;98563.13;;;20.16;91.52
76132;BME280;64877;50.994;13.650;2023-07-02T01:09:26;98554.00;;;20.02;92.42
76132;BME280;64877;50.994;13.650;2023-07-02T01:12:00;98560.31;;;19.96;92.93
76132;BME280;64877;50.994;13.650;2023-07-02T01:14:46;98560.09;;;19.91;93.60
76132;BME280;64877;50.994;13.650;2023-07-02T01:17:13;98564.75;;;19.97;93.45
76132;BME280;64877;50.994;13.650;2023-07-02T01:19:42;98561.72;;;19.78;94.06
76132;BME280;64877;50.994;13.650;2023-07-02T01:22:09;98550.78;;;19.78;94.57
76132;BME280;64877;50.994;13.650;2023-07-02T01:24:38;98552.28;;;19.81;94.11
76132;BME280;64877;50.994;13.650;2023-07-02T01:27:04;98550.81;;;19.85;94.00
76132;BME280;64877;50.994;13.650;2023-07-02T01:29:30;98552.72;;;19.91;94.23
76132;BME280;64877;50.994;13.650;2023-07-02T01:31:56;98549.75;;;19.86;93.78
76132;BME280;64877;50.994;13.650;2023-07-02T01:34:22;98553.56;;;19.85;94.17
76132;BME280;64877;50.994;13.650;2023-07-02T01:36:48;98553.09;;;19.81;94.67
76132;BME280;64877;50.994;13.650;2023-07-02T01:39:13;98558.38;;;19.76;94.89
76132;BME280;64877;50.994;13.650;2023-07-02T01:41:49;98560.03;;;19.77;94.67
76132;BME280;64877;50.994;13.650;2023-07-02T01:44:15;98560.72;;;19.79;94.79
76132;BME280;64877;50.994;13.650;2023-07-02T01:46:40;98549.97;;;19.84;94.66
76132;BME280;64877;50.994;13.650;2023-07-02T01:49:05;98560.72;;;19.79;95.11
76132;BME280;64877;50.994;13.650;2023-07-02T01:51:31;98565.50;;;19.71;95.31
76132;BME280;64877;50.994;13.650;2023-07-02T01:53:56;98560.03;;;19.71;96.36
76132;BME280;64877;50.994;13.650;2023-07-02T01:56:22;98560.03;;;19.71;99.65
76132;BME280;64877;50.994;13.650;2023-07-02T01:58:47;98570.53;;;19.60;100.00
76132;BME280;64877;50.994;13.650;2023-07-02T02:01:12;98570.03;;;19.50;100.00
76132;BME280;64877;50.994;13.650;2023-07-02T02:03:38;98567.94;;;19.59;100.00
76132;BME280;64877;50.994;13.650;2023-07-02T02:06:03;98567.06;;;19.52;100.00
76132;BME280;64877;50.994;13.650;2023-07-02T02:08:28;98567.56;;;19.62;100.00
76132;BME280;64877;50.994;13.650;2023-07-02T02:10:54;98570.81;;;19.44;100.00
76132;BME280;64877;50.994;13.650;2023-07-02T02:13:19;98571.69;;;19.45;100.00
76132;BME280;64877;50.994;13.650;2023-07-02T02:15:44;98569.97;;;19.44;100.00
76132;BME280;64877;50.994;13.650;2023-07-02T02:18:10;98567.81;;;19.32;100.00
76132;BME280;64877;50.994;13.650;2023-07-02T02:20:35;98568.25;;;19.29;100.00
76132;BME280;64877;50.994;13.650;2023-07-02T02:23:01;98572.44;;;19.32;100.00
76132;BME280;64877;50.994;13.650;2023-07-02T02:25:26;98567.22;;;19.37;100.00
76132;BME280;64877;50.994;13.650;2023-07-02T02:27:51;98565.69;;;19.28;100.00
76132;BME280;64877;50.994;13.650;2023-07-02T02:30:17;98565.69;;;19.28;100.00
76132;BME280;64877;50.994;13.650;2023-07-02T02:32:42;98572.72;;;19.44;100.00
76132;BME280;64877;50.994;13.650;2023-07-02T02:35:08;98564.00;;;19.27;100.00
76132;BME280;64877;50.994;13.650;2023-07-02T02:37:38;98568.25;;;19.29;100.00
76132;BME280;64877;50.994;13.650;2023-07-02T02:40:06;98565.22;;;19.24;100.00
76132;BME280;64877;50.994;13.650;2023-07-02T02:42:31;98565.22;;;19.24;100.00
76132;BME280;64877;50.994;13.650;2023-07-02T02:44:57;98561.00;;;19.15;100.00
76132;BME280;64877;50.994;13.650;2023-07-02T02:47:22;98570.06;;;19.22;100.00
76132;BME280;64877;50.994;13.650;2023-07-02T02:49:47;98575.78;;;19.27;100.00
76132;BME280;64877;50.994;13.650;2023-07-02T02:52:13;98575.34;;;19.24;100.00
76132;BME280;64877;50.994;13.650;2023-07-02T02:54:39;98573.25;;;19.26;100.00
76132;BME280;64877;50.994;13.650;2023-07-02T02:57:05;98573.66;;;19.23;100.00
76132;BME280;64877;50.994;13.650;2023-07-02T02:59:30;98572.22;;;19.27;100.00
76132;BME280;64877;50.994;13.650;2023-07-02T03:01:56;98565.88;;;19.26;100.00
76132;BME280;64877;50.994;13.650;2023-07-02T03:04:21;98567.72;;;19.19;100.00
76132;BME280;64877;50.994;13.650;2023-07-02T03:06:49;98571.13;;;19.21;100.00
76132;BME280;64877;50.994;13.650;2023-07-02T03:09:15;98571.94;;;19.15;100.00
76132;BME280;64877;50.994;13.650;2023-07-02T03:11:40;98570.66;;;19.11;100.00
76132;BME280;64877;50.994;13.650;2023-07-02T03:14:05;98579.91;;;19.10;100.00
76132;BME280;64877;50.994;13.650;2023-07-02T03:16:31;98579.44;;;19.06;100.00
76132;BME280;64877;50.994;13.650;2023-07-02T03:18:56;98574.81;;;19.07;100.00
76132;BME280;64877;50.994;13.650;2023-07-02T03:21:21;98576.97;;;19.11;100.00
76132;BME280;64877;50.994;13.650;2023-07-02T03:23:47;98583.66;;;19.09;100.00
76132;BME280;64877;50.994;13.650;2023-07-02T03:26:12;98577.34;;;19.08;100.00
76132;BME280;64877;50.994;13.650;2023-07-02T03:28:37;98589.38;;;19.14;100.00
76132;BME280;64877;50.994;13.650;2023-07-02T03:31:03;98589.13;;;19.09;100.00
76132;BME280;64877;50.994;13.650;2023-07-02T03:33:28;98579.25;;;19.08;100.00
76132;BME280;64877;50.994;13.650;2023-07-02T03:35:54;98586.41;;;19.09;100.00
76132;BME280;64877;50.994;13.650;2023-07-02T03:38:19;98590.03;;;19.16;100.00
76132;BME280;64877;50.994;13.650;2023-07-02T03:40:44;98594.09;;;19.20;100.00
76132;BME280;64877;50.994;13.650;2023-07-02T03:43:10;98591.75;;;19.24;100.00
76132;BME280;64877;50.994;13.650;2023-07-02T03:45:35;98598.88;;;19.18;100.00
76132;BME280;64877;50.994;13.650;2023-07-02T03:48:00;98591.75;;;19.24;100.00
76132;BME280;64877;50.994;13.650;2023-07-02T03:50:26;98597.69;;;19.27;100.00
76132;BME280;64877;50.994;13.650;2023-07-02T03:52:51;98597.06;;;19.25;100.00
76132;BME280;64877;50.994;13.650;2023-07-02T03:55:17;98603.50;;;19.11;100.00
76132;BME280;64877;50.994;13.650;2023-07-02T03:57:42;98597.06;;;19.25;100.00
76132;BME280;64877;50.994;13.650;2023-07-02T04:00:08;98599.34;;;19.22;100.00
76132;BME280;64877;50.994;13.650;2023-07-02T04:02:35;98606.47;;;19.16;100.00
76132;BME280;64877;50.994;13.650;2023-07-02T04:05:01;98619.75;;;19.19;100.00
76132;BME280;64877;50.994;13.650;2023-07-02T04:07:27;98616.81;;;19.21;100.00
76132;BME280;64877;50.994;13.650;2023-07-02T04:09:53;98612.41;;;19.20;100.00
76132;BME280;64877;50.994;13.650;2023-07-02T04:12:18;98624.19;;;19.20;100.00
76132;BME280;64877;50.994;13.650;2023-07-02T04:14:43;98621.22;;;19.15;100.00
76132;BME280;64877;50.994;13.650;2023-07-02T04:17:09;98631.06;;;19.09;100.00
76132;BME280;64877;50.994;13.650;2023-07-02T04:19:34;98625.16;;;18.84;100.00
76132;BME280;64877;50.994;13.650;2023-07-02T04:22:00;98639.63;;;18.78;100.00
76132;BME280;64877;50.994;13.650;2023-07-02T04:24:25;98634.03;;;18.87;100.00
76132;BME280;64877;50.994;13.650;2023-07-02T04:26:51;98634.50;;;18.90;100.00
76132;BME280;64877;50.994;13.650;2023-07-02T04:29:18;98637.41;;;18.89;100.00
76132;BME280;64877;50.994;13.650;2023-07-02T04:31:43;98648.34;;;18.89;100.00
76132;BME280;64877;50.994;13.650;2023-07-02T04:34:08;98647.03;;;18.84;100.00
76132;BME280;64877;50.994;13.650;2023-07-02T04:36:34;98645.09;;;18.78;100.00
76132;BME280;64877;50.994;13.650;2023-07-02T04:38:59;98661.78;;;18.83;100.00
76132;BME280;64877;50.994;13.650;2023-07-02T04:41:26;98660.47;;;18.79;100.00
76132;BME280;64877;50.994;13.650;2023-07-02T04:43:52;98664.91;;;18.80;100.00
76132;BME280;64877;50.994;13.650;2023-07-02T04:46:17;98661.50;;;18.78;100.00
76132;BME280;64877;50.994;13.650;2023-07-02T04:48:43;98673.72;;;18.76;100.00
76132;BME280;64877;50.994;13.650;2023-07-02T04:51:08;98671.16;;;18.96;100.00
76132;BME280;64877;50.994;13.650;2023-07-02T04:53:33;98674.25;;;19.14;100.00
76132;BME280;64877;50.994;13.650;2023-07-02T04:55:59;98665.69;;;18.96;100.00
76132;BME280;64877;50.994;13.650;2023-07-02T04:58:24;98663.91;;;18.88;100.00
76132;BME280;64877;50.994;13.650;2023-07-02T05:00:50;98666.53;;;18.96;100.00
76132;BME280;64877;50.994;13.650;2023-07-02T05:03:15;98663.88;;;18.81;100.00
76132;BME280;64877;50.994;13.650;2023-07-02T05:05:41;98679.13;;;18.91;100.00
76132;BME280;64877;50.994;13.650;2023-07-02T05:08:06;98685.75;;;18.81;100.00
76132;BME280;64877;50.994;13.650;2023-07-02T05:10:32;98688.38;;;18.90;100.00
76132;BME280;64877;50.994;13.650;2023-07-02T05:12:57;98689.59;;;18.87;100.00
76132;BME280;64877;50.994;13.650;2023-07-02T05:15:23;98694.28;;;18.93;100.00
76132;BME280;64877;50.994;13.650;2023-07-02T05:17:49;98698.38;;;19.04;100.00
76132;BME280;64877;50.994;13.650;2023-07-02T05:20:14;98700.59;;;18.94;100.00
76132;BME280;64877;50.994;13.650;2023-07-02T05:22:40;98696.44;;;18.98;100.00
76132;BME280;64877;50.994;13.650;2023-07-02T05:25:05;98696.44;;;18.98;100.00
76132;BME280;64877;50.994;13.650;2023-07-02T05:27:31;98699.03;;;19.06;100.00
76132;BME280;64877;50.994;13.650;2023-07-02T05:29:56;98712.13;;;19.10;100.00
76132;BME280;64877;50.994;13.650;2023-07-02T05:32:22;98707.00;;;19.01;100.00
76132;BME280;64877;50.994;13.650;2023-07-02T05:34:47;98719.38;;;18.97;100.00
76132;BME280;64877;50.994;13.650;2023-07-02T05:37:13;98712.47;;;19.01;100.00
76132;BME280;64877;50.994;13.650;2023-07-02T05:39:38;98719.88;;;19.07;100.00
76132;BME280;64877;50.994;13.650;2023-07-02T05:42:04;98721.56;;;19.29;100.00
76132;BME280;64877;50.994;13.650;2023-07-02T05:44:29;98722.69;;;19.42;100.00
76132;BME280;64877;50.994;13.650;2023-07-02T05:46:55;98725.13;;;19.58;100.00
76132;BME280;64877;50.994;13.650;2023-07-02T05:49:20;98717.81;;;19.37;100.00
76132;BME280;64877;50.994;13.650;2023-07-02T05:51:46;98732.84;;;19.48;100.00
76132;BME280;64877;50.994;13.650;2023-07-02T05:54:11;98730.56;;;19.51;98.81
76132;BME280;64877;50.994;13.650;2023-07-02T05:56:36;98728.47;;;19.53;98.50
76132;BME280;64877;50.994;13.650;2023-07-02T05:59:02;98735.94;;;19.59;97.77
76132;BME280;64877;50.994;13.650;2023-07-02T06:01:27;98737.34;;;19.55;97.72
76132;BME280;64877;50.994;13.650;2023-07-02T06:03:53;98740.19;;;19.69;97.40
76132;BME280;64877;50.994;13.650;2023-07-02T06:06:20;98731.31;;;19.60;97.41
76132;BME280;64877;50.994;13.650;2023-07-02T06:08:47;98736.88;;;19.52;97.31
76132;BME280;64877;50.994;13.650;2023-07-02T06:11:13;98739.88;;;19.57;98.44
76132;BME280;64877;50.994;13.650;2023-07-02T06:13:38;98749.22;;;19.62;96.41
76132;BME280;64877;50.994;13.650;2023-07-02T06:16:03;98750.97;;;19.49;97.86
76132;BME280;64877;50.994;13.650;2023-07-02T06:18:29;98751.19;;;19.47;97.83
76132;BME280;64877;50.994;13.650;2023-07-02T06:20:54;98745.09;;;19.52;98.36
76132;BME280;64877;50.994;13.650;2023-07-02T06:23:20;98746.53;;;19.48;98.39
76132;BME280;64877;50.994;13.650;2023-07-02T06:25:45;98754.75;;;19.69;95.07
76132;BME280;64877;50.994;13.650;2023-07-02T06:28:10;98750.03;;;19.84;93.91
76132;BME280;64877;50.994;13.650;2023-07-02T06:30:36;98748.97;;;19.85;93.57
76132;BME280;64877;50.994;13.650;2023-07-02T06:33:01;98741.81;;;19.91;91.71
76132;BME280;64877;50.994;13.650;2023-07-02T06:35:26;98753.25;;;19.95;91.83
76132;BME280;64877;50.994;13.650;2023-07-02T06:37:52;98750.56;;;20.08;89.85
76132;BME280;64877;50.994;13.650;2023-07-02T06:40:17;98754.59;;;20.12;88.64
76132;BME280;64877;50.994;13.650;2023-07-02T06:42:43;98762.81;;;20.12;88.88
76132;BME280;64877;50.994;13.650;2023-07-02T06:45:08;98765.41;;;20.20;88.41
76132;BME280;64877;50.994;13.650;2023-07-02T06:47:34;98768.16;;;20.27;87.22
76132;BME280;64877;50.994;13.650;2023-07-02T06:49:59;98770.31;;;20.31;85.69
76132;BME280;64877;50.994;13.650;2023-07-02T06:52:25;98771.31;;;20.24;85.90
76132;BME280;64877;50.994;13.650;2023-07-02T06:54:50;98768.41;;;20.38;84.73
76132;BME280;64877;50.994;13.650;2023-07-02T06:57:16;98759.56;;;20.36;83.21
76132;BME280;64877;50.994;13.650;2023-07-02T06:59:41;98765.78;;;20.52;83.16
76132;BME280;64877;50.994;13.650;2023-07-02T07:02:07;98763.78;;;20.80;82.28
76132;BME280;64877;50.994;13.650;2023-07-02T07:04:32;98762.97;;;21.00;80.03
76132;BME280;64877;50.994;13.650;2023-07-02T07:07:00;98768.13;;;21.69;74.88
76132;BME280;64877;50.994;13.650;2023-07-02T07:09:25;98759.38;;;22.12;76.99
76132;BME280;64877;50.994;13.650;2023-07-02T07:11:50;98760.81;;;22.34;72.06
76132;BME280;64877;50.994;13.650;2023-07-02T07:14:16;98760.66;;;22.74;67.52
76132;BME280;64877;50.994;13.650;2023-07-02T07:16:41;98766.31;;;22.92;67.66
76132;BME280;64877;50.994;13.650;2023-07-02T07:19:07;98772.84;;;22.91;65.14
76132;BME280;64877;50.994;13.650;2023-07-02T07:21:36;98770.31;;;22.90;65.71
76132;BME280;64877;50.994;13.650;2023-07-02T07:24:01;98768.19;;;22.85;65.22
76132;BME280;64877;50.994;13.650;2023-07-02T07:26:27;98763.03;;;22.64;67.19
76132;BME280;64877;50.994;13.650;2023-07-02T07:28:52;98762.31;;;22.30;67.55
76132;BME280;64877;50.994;13.650;2023-07-02T07:31:21;98763.00;;;21.99;67.43
76132;BME280;64877;50.994;13.650;2023-07-02T07:33:46;98759.22;;;21.67;68.23
76132;BME280;64877;50.994;13.650;2023-07-02T07:36:11;98765.38;;;21.69;67.65
76132;BME280;64877;50.994;13.650;2023-07-02T07:38:37;98749.19;;;22.26;67.27
76132;BME280;64877;50.994;13.650;2023-07-02T07:41:03;98748.09;;;22.40;65.05
76132;BME280;64877;50.994;13.650;2023-07-02T07:43:28;98752.75;;;22.84;62.78
76132;BME280;64877;50.994;13.650;2023-07-02T07:45:53;98741.41;;;23.06;61.07
76132;BME280;64877;50.994;13.650;2023-07-02T07:48:20;98759.78;;;23.18;61.46
76132;BME280;64877;50.994;13.650;2023-07-02T07:50:46;98760.09;;;23.04;57.41
76132;BME280;64877;50.994;13.650;2023-07-02T07:53:12;98760.75;;;23.56;57.49
76132;BME280;64877;50.994;13.650;2023-07-02T07:55:37;98748.88;;;24.23;54.05
76132;BME280;64877;50.994;13.650;2023-07-02T07:58:03;98749.75;;;24.42;50.90
76132;BME280;64877;50.994;13.650;2023-07-02T08:00:28;98743.44;;;24.84;51.01
76132;BME280;64877;50.994;13.650;2023-07-02T08:02:53;98739.44;;;24.68;51.70
76132;BME280;64877;50.994;13.650;2023-07-02T08:05:20;98741.56;;;24.66;51.76
76132;BME280;64877;50.994;13.650;2023-07-02T08:07:46;98747.97;;;24.96;51.99
76132;BME280;64877;50.994;13.650;2023-07-02T08:10:11;98743.28;;;25.50;50.84
76132;BME280;64877;50.994;13.650;2023-07-02T08:12:37;98746.44;;;25.42;49.02
76132;BME280;64877;50.994;13.650;2023-07-02T08:15:02;98749.41;;;25.29;48.66
76132;BME280;64877;50.994;13.650;2023-07-02T08:17:28;98748.75;;;24.85;49.95
76132;BME280;64877;50.994;13.650;2023-07-02T08:19:56;98744.13;;;24.67;51.02
76132;BME280;64877;50.994;13.650;2023-07-02T08:22:21;98741.22;;;24.44;50.11
76132;BME280;64877;50.994;13.650;2023-07-02T08:24:46;98746.84;;;24.31;50.82
76132;BME280;64877;50.994;13.650;2023-07-02T08:27:15;98742.66;;;24.46;49.84
76132;BME280;64877;50.994;13.650;2023-07-02T08:29:42;98744.94;;;24.31;48.72
76132;BME280;64877;50.994;13.650;2023-07-02T08:32:07;98753.50;;;24.48;49.96
76132;BME280;64877;50.994;13.650;2023-07-02T08:34:33;98751.88;;;24.59;49.29
76132;BME280;64877;50.994;13.650;2023-07-02T08:36:58;98756.13;;;24.91;49.72
76132;BME280;64877;50.994;13.650;2023-07-02T08:39:23;98767.25;;;25.15;48.86
76132;BME280;64877;50.994;13.650;2023-07-02T08:41:49;98769.38;;;25.31;47.08
76132;BME280;64877;50.994;13.650;2023-07-02T08:44:18;98766.41;;;25.14;46.78
76132;BME280;64877;50.994;13.650;2023-07-02T08:46:44;98767.38;;;24.90;45.67
76132;BME280;64877;50.994;13.650;2023-07-02T08:49:10;98766.56;;;24.71;46.01
76132;BME280;64877;50.994;13.650;2023-07-02T08:51:36;98765.34;;;25.57;44.85
76132;BME280;64877;50.994;13.650;2023-07-02T08:54:02;98772.03;;;25.38;44.46
76132;BME280;64877;50.994;13.650;2023-07-02T08:56:28;98767.50;;;25.67;44.16
76132;BME280;64877;50.994;13.650;2023-07-02T08:58:53;98772.41;;;29.38;36.02
76132;BME280;64877;50.994;13.650;2023-07-02T09:01:18;98773.41;;;27.67;37.87
76132;BME280;64877;50.994;13.650;2023-07-02T09:03:44;98763.06;;;26.36;38.94
76132;BME280;64877;50.994;13.650;2023-07-02T09:06:10;98771.78;;;25.81;40.98
76132;BME280;64877;50.994;13.650;2023-07-02T09:08:36;98774.91;;;25.31;42.19
76132;BME280;64877;50.994;13.650;2023-07-02T09:11:07;98771.78;;;24.79;43.46
76132;BME280;64877;50.994;13.650;2023-07-02T09:13:45;98771.69;;;25.16;43.09
76132;BME280;64877;50.994;13.650;2023-07-02T09:16:31;98765.00;;;24.93;42.79
76132;BME280;64877;50.994;13.650;2023-07-02T09:21:47;98765.66;;;24.59;43.68
76132;BME280;64877;50.994;13.650;2023-07-02T09:24:22;98772.78;;;24.66;41.69
76132;BME280;64877;50.994;13.650;2023-07-02T09:26:50;98784.47;;;24.68;41.54
76132;BME280;64877;50.994;13.650;2023-07-02T09:29:36;98779.25;;;24.90;41.75
76132;BME280;64877;50.994;13.650;2023-07-02T09:32:05;98782.38;;;24.45;43.39
76132;BME280;64877;50.994;13.650;2023-07-02T09:34:35;98781.13;;;24.23;42.60
76132;BME280;64877;50.994;13.650;2023-07-02T09:37:01;98785.16;;;24.45;42.40
76132;BME280;64877;50.994;13.650;2023-07-02T09:39:28;98781.78;;;24.43;42.25
76132;BME280;64877;50.994;13.650;2023-07-02T09:41:55;98781.31;;;24.65;42.12
76132;BME280;64877;50.994;13.650;2023-07-02T09:44:25;98786.19;;;24.26;43.73
76132;BME280;64877;50.994;13.650;2023-07-02T09:46:58;98791.78;;;24.19;43.60
76132;BME280;64877;50.994;13.650;2023-07-02T09:49:24;98788.31;;;24.06;44.03
76132;BME280;64877;50.994;13.650;2023-07-02T09:51:51;98783.56;;;24.38;44.00
76132;BME280;64877;50.994;13.650;2023-07-02T09:54:17;98784.41;;;24.38;43.61
76132;BME280;64877;50.994;13.650;2023-07-02T09:56:45;98789.03;;;24.19;43.35
76132;BME280;64877;50.994;13.650;2023-07-02T09:59:11;98788.75;;;23.84;43.89
76132;BME280;64877;50.994;13.650;2023-07-02T10:01:36;98780.34;;;24.16;44.75
76132;BME280;64877;50.994;13.650;2023-07-02T10:04:15;98774.34;;;24.44;43.37
76132;BME280;64877;50.994;13.650;2023-07-02T10:06:53;98766.22;;;24.67;44.09
76132;BME280;64877;50.994;13.650;2023-07-02T10:09:20;98771.19;;;24.77;43.29
76132;BME280;64877;50.994;13.650;2023-07-02T10:11:45;98783.13;;;24.71;44.39
76132;BME280;64877;50.994;13.650;2023-07-02T10:14:12;98785.28;;;24.69;43.56
76132;BME280;64877;50.994;13.650;2023-07-02T10:16:53;98788.38;;;24.42;43.01
76132;BME280;64877;50.994;13.650;2023-07-02T10:19:18;98784.94;;;24.47;42.67
76132;BME280;64877;50.994;13.650;2023-07-02T10:21:44;98782.94;;;24.54;42.60
76132;BME280;64877;50.994;13.650;2023-07-02T10:24:16;98788.94;;;24.81;42.56
76132;BME280;64877;50.994;13.650;2023-07-02T10:27:01;98788.00;;;24.57;42.98
76132;BME280;64877;50.994;13.650;2023-07-02T10:29:28;98796.00;;;24.47;42.97
76132;BME280;64877;50.994;13.650;2023-07-02T10:31:55;98788.38;;;24.61;42.44
76132;BME280;64877;50.994;13.650;2023-07-02T10:34:35;98796.09;;;24.34;43.15
76132;BME280;64877;50.994;13.650;2023-07-02T10:37:03;98782.72;;;24.37;42.67
76132;BME280;64877;50.994;13.650;2023-07-02T10:39:32;98778.22;;;24.18;42.62
76132;BME280;64877;50.994;13.650;2023-07-02T10:42:07;98788.31;;;23.87;43.26
76132;BME280;64877;50.994;13.650;2023-07-02T10:44:34;98785.44;;;24.19;42.58
76132;BME280;64877;50.994;13.650;2023-07-02T10:47:00;98781.16;;;24.60;43.23
76132;BME280;64877;50.994;13.650;2023-07-02T10:49:32;98785.28;;;24.69;43.36
76132;BME280;64877;50.994;13.650;2023-07-02T10:52:01;98785.81;;;24.22;42.45
76132;BME280;64877;50.994;13.650;2023-07-02T10:54:45;98781.00;;;24.36;42.51
76132;BME280;64877;50.994;13.650;2023-07-02T10:57:14;98777.00;;;24.69;42.19
76132;BME280;64877;50.994;13.650;2023-07-02T10:59:45;98768.28;;;24.72;41.87
76132;BME280;64877;50.994;13.650;2023-07-02T11:02:11;98772.34;;;24.51;40.80
76132;BME280;64877;50.994;13.650;2023-07-02T11:04:37;98768.88;;;24.56;41.66
76132;BME280;64877;50.994;13.650;2023-07-02T11:07:03;98775.50;;;24.55;41.14
76132;BME280;64877;50.994;13.650;2023-07-02T11:09:29;98775.63;;;24.60;41.57
76132;BME280;64877;50.994;13.650;2023-07-02T11:11:56;98773.78;;;24.35;41.05
76132;BME280;64877;50.994;13.650;2023-07-02T11:14:32;98772.19;;;24.28;41.32
76132;BME280;64877;50.994;13.650;2023-07-02T11:16:59;98772.88;;;24.41;42.04
76132;BME280;64877;50.994;13.650;2023-07-02T11:19:27;98772.81;;;24.48;41.98
76132;BME280;64877;50.994;13.650;2023-07-02T11:21:54;98767.59;;;24.40;40.92
76132;BME280;64877;50.994;13.650;2023-07-02T11:24:35;98774.41;;;24.56;41.99
76132;BME280;64877;50.994;13.650;2023-07-02T11:27:05;98772.41;;;24.63;42.03
76132;BME280;64877;50.994;13.650;2023-07-02T11:29:31;98777.47;;;24.66;41.07
76132;BME280;64877;50.994;13.650;2023-07-02T11:32:10;98774.88;;;24.53;41.17
76132;BME280;64877;50.994;13.650;2023-07-02T11:34:37;98778.78;;;24.63;42.00
76132;BME280;64877;50.994;13.650;2023-07-02T11:37:03;98780.16;;;24.72;41.90
76132;BME280;64877;50.994;13.650;2023-07-02T11:39:29;98786.66;;;24.78;42.10
76132;BME280;64877;50.994;13.650;2023-07-02T11:41:55;98777.25;;;24.67;42.22
76132;BME280;64877;50.994;13.650;2023-07-02T11:44:20;98777.03;;;24.99;41.66
76132;BME280;64877;50.994;13.650;2023-07-02T11:46:47;98783.28;;;25.06;40.44
76132;BME280;64877;50.994;13.650;2023-07-02T11:49:13;98787.25;;;24.98;40.30
76132;BME280;64877;50.994;13.650;2023-07-02T11:51:40;98786.19;;;24.81;41.27
76132;BME280;64877;50.994;13.650;2023-07-02T11:54:06;98779.69;;;24.75;41.89
76132;BME280;64877;50.994;13.650;2023-07-02T11:56:32;98785.69;;;24.72;42.18
76132;BME280;64877;50.994;13.650;2023-07-02T11:58:58;98790.09;;;24.92;43.27
76132;BME280;64877;50.994;13.650;2023-07-02T12:01:24;98792.78;;;24.80;42.69
76132;BME280;64877;50.994;13.650;2023-07-02T12:03:49;98793.06;;;24.42;43.39
76132;BME280;64877;50.994;13.650;2023-07-02T12:06:15;98797.97;;;24.40;44.57
76132;BME280;64877;50.994;13.650;2023-07-02T12:08:40;98806.25;;;24.58;43.34
76132;BME280;64877;50.994;13.650;2023-07-02T12:11:06;98803.94;;;24.73;42.58
76132;BME280;64877;50.994;13.650;2023-07-02T12:13:31;98795.94;;;24.65;41.65
76132;BME280;64877;50.994;13.650;2023-07-02T12:15:57;98804.03;;;24.67;41.47
76132;BME280;64877;50.994;13.650;2023-07-02T12:18:22;98793.06;;;24.42;41.01
76132;BME280;64877;50.994;13.650;2023-07-02T12:20:47;98797.38;;;24.31;41.45
76132;BME280;64877;50.994;13.650;2023-07-02T12:23:13;98786.97;;;24.33;42.07
76132;BME280;64877;50.994;13.650;2023-07-02T12:25:39;98784.00;;;24.53;42.34
76132;BME280;64877;50.994;13.650;2023-07-02T12:28:05;98787.31;;;24.43;42.47
76132;BME280;64877;50.994;13.650;2023-07-02T12:30:31;98793.72;;;24.56;42.33
76132;BME280;64877;50.994;13.650;2023-07-02T12:32:57;98807.31;;;24.39;42.60
76132;BME280;64877;50.994;13.650;2023-07-02T12:35:22;98803.88;;;24.43;42.26
76132;BME280;64877;50.994;13.650;2023-07-02T12:37:52;98802.31;;;24.66;41.73
76132;BME280;64877;50.994;13.650;2023-07-02T12:40:19;98803.53;;;24.70;42.63
76132;BME280;64877;50.994;13.650;2023-07-02T12:42:45;98796.09;;;24.89;42.36
76132;BME280;64877;50.994;13.650;2023-07-02T12:45:11;98792.69;;;24.57;42.18
76132;BME280;64877;50.994;13.650;2023-07-02T12:47:38;98798.13;;;24.63;42.55